createdAt,value
2023-01-20T00:00:19.737Z,10.7
2023-01-20T00:01:35.055Z,10.4
2023-01-20T00:02:51.356Z,10.8
2023-01-20T00:04:07.644Z,10.1
2023-01-20T00:05:23.932Z,10.9
2023-01-20T00:06:40.228Z,11.2
2023-01-20T00:07:56.530Z,11
2023-01-20T00:09:12.812Z,11.5
2023-01-20T00:10:29.116Z,11.3
2023-01-20T00:11:45.401Z,11.1
2023-01-20T00:13:01.697Z,11
2023-01-20T00:14:17.983Z,10.9
2023-01-20T00:15:34.285Z,10.6
2023-01-20T00:16:50.570Z,10.7
2023-01-20T00:18:05.884Z,10.4
2023-01-20T00:19:22.184Z,11
2023-01-20T00:20:38.475Z,10.4
2023-01-20T00:21:54.762Z,10.5
2023-01-20T00:23:11.065Z,10.9
2023-01-20T00:24:27.363Z,11.6
2023-01-20T00:25:43.657Z,10.9
2023-01-20T00:26:59.938Z,10.3
2023-01-20T00:28:16.234Z,10.7
2023-01-20T00:29:32.535Z,11.2
2023-01-20T00:30:48.819Z,11.3
2023-01-20T00:32:05.127Z,10.4
2023-01-20T00:33:21.410Z,10.9
2023-01-20T00:34:36.722Z,10.6
2023-01-20T00:35:53.021Z,10.2
2023-01-20T00:37:09.321Z,10.4
2023-01-20T00:38:25.601Z,10.4
2023-01-20T00:39:41.916Z,10.2
2023-01-20T00:40:58.205Z,10.5
2023-01-20T00:42:14.491Z,10.8
2023-01-20T00:43:30.775Z,10.4
2023-01-20T00:44:47.092Z,10.9
2023-01-20T00:46:03.372Z,10.5
2023-01-20T00:47:19.656Z,11.2
2023-01-20T00:48:35.974Z,10.5
2023-01-20T00:49:52.254Z,10.7
2023-01-20T00:51:07.562Z,10.8
2023-01-20T00:52:23.847Z,10.1
2023-01-20T00:53:40.141Z,10.4
2023-01-20T00:54:56.451Z,10.5
2023-01-20T00:56:12.743Z,10.6
2023-01-20T00:57:29.023Z,10.7
2023-01-20T00:58:45.332Z,10.3
2023-01-20T01:00:01.614Z,11
2023-01-20T01:01:17.901Z,10.7
2023-01-20T01:02:34.195Z,10.6
2023-01-20T01:03:50.493Z,10.7
2023-01-20T01:05:06.785Z,10.9
2023-01-20T01:06:23.081Z,10.5
2023-01-20T01:07:38.397Z,10.9
2023-01-20T01:08:54.686Z,10.6
2023-01-20T01:10:10.976Z,11.2
2023-01-20T01:11:27.267Z,10.7
2023-01-20T01:12:43.578Z,10.8
2023-01-20T01:13:59.854Z,10.1
2023-01-20T01:15:16.155Z,11.3
2023-01-20T01:16:32.444Z,11.1
2023-01-20T01:17:48.747Z,11.1
2023-01-20T01:19:05.043Z,11
2023-01-20T01:20:21.334Z,10.5
2023-01-20T01:21:37.632Z,10.7
2023-01-20T01:22:53.931Z,10.8
2023-01-20T01:24:09.235Z,10.4
2023-01-20T01:25:25.532Z,10.2
2023-01-20T01:26:41.827Z,10.2
2023-01-20T01:27:58.109Z,11.2
2023-01-20T01:29:14.414Z,10.5
2023-01-20T01:30:30.695Z,10.3
2023-01-20T01:31:46.995Z,11.5
2023-01-20T01:33:03.287Z,10.4
2023-01-20T01:34:19.579Z,10.4
2023-01-20T01:35:35.877Z,11.1
2023-01-20T01:36:52.173Z,11.4
2023-01-20T01:38:08.454Z,10.6
2023-01-20T01:39:24.749Z,11.3
2023-01-20T01:40:40.059Z,10.8
2023-01-20T01:41:56.365Z,10.8
2023-01-20T01:43:12.660Z,10.9
2023-01-20T01:44:28.955Z,10.8
2023-01-20T01:45:45.265Z,10.9
2023-01-20T01:47:01.540Z,10.7
2023-01-20T01:48:17.845Z,11.1
2023-01-20T01:49:34.130Z,10.2
2023-01-20T01:50:50.435Z,11.2
2023-01-20T01:52:06.708Z,10.2
2023-01-20T01:53:23.011Z,11.2
2023-01-20T01:54:39.300Z,11.7
2023-01-20T01:55:55.597Z,10.4
2023-01-20T01:57:10.901Z,10.6
2023-01-20T01:58:27.202Z,10.4
2023-01-20T01:59:43.484Z,10.6
2023-01-20T02:00:59.776Z,10.3
2023-01-20T02:02:16.084Z,11.1
2023-01-20T02:03:32.363Z,10.3
2023-01-20T02:04:48.676Z,10.4
2023-01-20T02:06:04.964Z,10.4
2023-01-20T02:07:21.252Z,10.8
2023-01-20T02:08:37.557Z,10.4
2023-01-20T02:09:53.833Z,10.8
2023-01-20T02:11:10.140Z,10.1
2023-01-20T02:12:26.438Z,10.3
2023-01-20T02:13:41.739Z,10.5
2023-01-20T02:14:58.029Z,10.3
2023-01-20T02:16:14.350Z,10.8
2023-01-20T02:17:30.616Z,10.5
2023-01-20T02:18:46.908Z,10.2
2023-01-20T02:20:03.222Z,9.9
2023-01-20T02:21:19.507Z,10.6
2023-01-20T02:22:35.806Z,10.9
2023-01-20T02:23:52.088Z,10.9
2023-01-20T02:25:08.377Z,9.3
2023-01-20T02:26:24.672Z,9.8
2023-01-20T02:27:40.977Z,9.5
2023-01-20T02:28:57.258Z,10
2023-01-20T02:30:12.585Z,9.9
2023-01-20T02:31:28.869Z,10.2
2023-01-20T02:32:45.171Z,10.2
2023-01-20T02:34:01.446Z,9.6
2023-01-20T02:35:17.771Z,10.2
2023-01-20T02:36:34.052Z,10.4
2023-01-20T02:37:49.363Z,10.1
2023-01-20T02:39:05.662Z,10.8
2023-01-20T02:40:21.951Z,10.5
2023-01-20T02:41:38.234Z,10.7
2023-01-20T02:42:54.544Z,9.7
2023-01-20T02:44:10.835Z,10.7
2023-01-20T02:45:27.123Z,10.1
2023-01-20T02:46:43.430Z,10.1
2023-01-20T02:47:59.708Z,10.6
2023-01-20T02:49:16.000Z,10.1
2023-01-20T02:50:32.294Z,10.7
2023-01-20T02:51:48.587Z,10
2023-01-20T02:53:04.884Z,10.2
2023-01-20T02:54:20.195Z,9.7
2023-01-20T02:55:36.479Z,10
2023-01-20T02:56:52.792Z,10.9
2023-01-20T02:58:09.068Z,10.5
2023-01-20T02:59:25.394Z,10.9
2023-01-20T03:00:41.658Z,10.9
2023-01-20T03:01:57.962Z,11
2023-01-20T03:03:14.258Z,11
2023-01-20T03:04:30.537Z,10.4
2023-01-20T03:05:46.854Z,9.8
2023-01-20T03:07:03.143Z,9.8
2023-01-20T03:08:19.431Z,10.3
2023-01-20T03:09:35.729Z,9.8
2023-01-20T03:10:51.022Z,10.2
2023-01-20T03:12:07.334Z,10.7
2023-01-20T03:13:23.623Z,10.4
2023-01-20T03:14:39.917Z,9.9
2023-01-20T03:15:56.199Z,10
2023-01-20T03:17:12.508Z,10.7
2023-01-20T03:18:28.794Z,10.8
2023-01-20T03:19:45.083Z,10.9
2023-01-20T03:21:01.399Z,11.4
2023-01-20T03:22:17.691Z,10.1
2023-01-20T03:23:33.962Z,9.9
2023-01-20T03:24:50.276Z,10.8
2023-01-20T03:26:06.567Z,10.7
2023-01-20T03:27:21.863Z,10.6
2023-01-20T03:28:38.176Z,10.4
2023-01-20T03:29:54.457Z,10.6
2023-01-20T03:31:10.742Z,10.3
2023-01-20T03:32:27.040Z,10
2023-01-20T03:33:43.341Z,11
2023-01-20T03:34:59.621Z,10.1
2023-01-20T03:36:15.914Z,10.5
2023-01-20T03:37:32.212Z,10.4
2023-01-20T03:38:48.517Z,11.3
2023-01-20T03:40:04.793Z,11.3
2023-01-20T03:41:21.097Z,11.2
2023-01-20T03:42:37.391Z,11
2023-01-20T03:43:52.692Z,11.1
2023-01-20T03:45:08.989Z,11.5
2023-01-20T03:46:25.292Z,11.2
2023-01-20T03:47:41.582Z,10.5
2023-01-20T03:48:57.871Z,10.9
2023-01-20T03:50:14.178Z,10.8
2023-01-20T03:51:30.467Z,9.9
2023-01-20T03:52:46.761Z,10.5
2023-01-20T03:54:03.054Z,10.4
2023-01-20T03:55:19.349Z,10.2
2023-01-20T03:56:35.637Z,10.1
2023-01-20T03:57:51.940Z,10.3
2023-01-20T03:59:08.243Z,10.3
2023-01-20T04:00:23.555Z,10.1
2023-01-20T04:01:39.827Z,9.9
2023-01-20T04:02:56.115Z,10.5
2023-01-20T04:04:12.413Z,9.9
2023-01-20T04:05:28.701Z,10.7
2023-01-20T04:06:45.011Z,10.4
2023-01-20T04:08:01.315Z,11
2023-01-20T04:09:17.593Z,10.7
2023-01-20T04:10:33.879Z,10.5
2023-01-20T04:11:50.174Z,10.4
2023-01-20T04:13:06.483Z,10.5
2023-01-20T04:14:22.774Z,10.3
2023-01-20T04:15:39.061Z,10
2023-01-20T04:16:54.380Z,9.9
2023-01-20T04:18:10.674Z,10.4
2023-01-20T04:19:26.959Z,10.1
2023-01-20T04:20:43.260Z,10.4
2023-01-20T04:21:59.546Z,10.3
2023-01-20T04:23:15.834Z,10.2
2023-01-20T04:24:32.142Z,10.4
2023-01-20T04:25:48.445Z,10.4
2023-01-20T04:27:04.714Z,10.1
2023-01-20T04:28:21.014Z,9.8
2023-01-20T04:29:37.312Z,10.1
2023-01-20T04:30:53.616Z,10
2023-01-20T04:32:09.900Z,10.3
2023-01-20T04:33:25.199Z,9.5
2023-01-20T04:34:41.508Z,10.3
2023-01-20T04:35:57.803Z,10.3
2023-01-20T04:37:14.097Z,9.6
2023-01-20T04:38:30.371Z,9.6
2023-01-20T04:39:46.670Z,9.8
2023-01-20T04:41:02.974Z,10.4
2023-01-20T04:42:19.254Z,10.3
2023-01-20T04:43:35.548Z,10.2
2023-01-20T04:44:51.000Z,10.7
2023-01-20T04:46:08.164Z,9.8
2023-01-20T04:47:24.446Z,10.4
2023-01-20T04:48:40.728Z,10.2
2023-01-20T04:49:56.035Z,10.8
2023-01-20T04:51:12.326Z,10.1
2023-01-20T04:52:28.631Z,10
2023-01-20T04:53:44.932Z,10.1
2023-01-20T04:55:01.213Z,10.3
2023-01-20T04:56:17.503Z,9.7
2023-01-20T04:57:33.805Z,9.8
2023-01-20T04:58:50.095Z,9.6
2023-01-20T05:00:06.383Z,9.8
2023-01-20T05:01:22.692Z,9.7
2023-01-20T05:02:38.974Z,9.8
2023-01-20T05:03:55.287Z,10.8
2023-01-20T05:05:11.567Z,10.1
2023-01-20T05:06:26.871Z,10.2
2023-01-20T05:07:43.169Z,10.6
2023-01-20T05:08:59.456Z,10.3
2023-01-20T05:10:15.756Z,10.8
2023-01-20T05:11:32.065Z,10
2023-01-20T05:12:48.349Z,10
2023-01-20T05:14:04.639Z,10.4
2023-01-20T05:15:20.933Z,9.9
2023-01-20T05:16:37.233Z,9.6
2023-01-20T05:17:53.521Z,10.7
2023-01-20T05:19:09.812Z,9.9
2023-01-20T05:20:26.100Z,10.6
2023-01-20T05:21:42.391Z,9.7
2023-01-20T05:22:57.723Z,9.7
2023-01-20T05:24:13.998Z,10.5
2023-01-20T05:25:30.293Z,10.9
2023-01-20T05:26:46.598Z,10.7
2023-01-20T05:28:02.878Z,10.9
2023-01-20T05:29:19.170Z,12.1
2023-01-20T05:30:35.488Z,11.5
2023-01-20T05:31:51.758Z,13.6
2023-01-20T05:33:08.065Z,13
2023-01-20T05:34:24.364Z,12.6
2023-01-20T05:35:40.641Z,13.2
2023-01-20T05:36:56.935Z,12.6
2023-01-20T05:38:13.248Z,12.8
2023-01-20T05:39:28.554Z,11.8
2023-01-20T05:40:44.834Z,12.2
2023-01-20T05:42:01.150Z,12.1
2023-01-20T05:43:17.419Z,11.7
2023-01-20T05:44:33.738Z,10.4
2023-01-20T05:45:50.025Z,11.5
2023-01-20T05:47:06.301Z,12.2
2023-01-20T05:48:22.614Z,11.1
2023-01-20T05:49:38.901Z,11.4
2023-01-20T05:50:55.183Z,11.6
2023-01-20T05:52:11.491Z,11.9
2023-01-20T05:53:27.797Z,10.9
2023-01-20T05:54:44.066Z,10.4
2023-01-20T05:55:59.386Z,11.6
2023-01-20T05:57:15.669Z,11.3
2023-01-20T05:58:31.969Z,10.6
2023-01-20T05:59:48.261Z,11.4
2023-01-20T06:01:04.563Z,11.3
2023-01-20T06:02:20.849Z,10.4
2023-01-20T06:03:37.147Z,10.4
2023-01-20T06:04:53.447Z,10.3
2023-01-20T06:06:09.744Z,10.9
2023-01-20T06:07:26.018Z,10.6
2023-01-20T06:08:42.311Z,10.7
2023-01-20T06:09:58.628Z,10.8
2023-01-20T06:11:14.900Z,10.2
2023-01-20T06:12:30.210Z,10.7
2023-01-20T06:13:46.517Z,10.3
2023-01-20T06:15:02.814Z,10.4
2023-01-20T06:16:19.090Z,11
2023-01-20T06:17:35.387Z,10.1
2023-01-20T06:18:51.696Z,11.1
2023-01-20T06:20:07.993Z,10.4
2023-01-20T06:21:24.281Z,10.1
2023-01-20T06:22:40.579Z,10.7
2023-01-20T06:23:56.864Z,11
2023-01-20T06:25:13.163Z,10.2
2023-01-20T06:26:29.453Z,9.9
2023-01-20T06:27:45.752Z,10
2023-01-20T06:29:01.060Z,10.1
2023-01-20T06:30:17.358Z,10.8
2023-01-20T06:31:33.653Z,10.7
2023-01-20T06:32:49.958Z,11.2
2023-01-20T06:34:06.224Z,10.7
2023-01-20T06:35:22.537Z,10.6
2023-01-20T06:36:38.819Z,10.8
2023-01-20T06:37:55.126Z,10.5
2023-01-20T06:39:11.352Z,10.3
2023-01-20T06:40:27.653Z,10.9
2023-01-20T06:41:43.899Z,10.4
2023-01-20T06:43:00.146Z,10.4
2023-01-20T06:44:16.374Z,10.2
2023-01-20T06:45:31.654Z,10.4
2023-01-20T06:46:47.897Z,10.6
2023-01-20T06:48:04.124Z,10.8
2023-01-20T06:49:20.368Z,11.3
2023-01-20T06:50:36.655Z,10.9
2023-01-20T06:53:09.157Z,10.7
2023-01-20T06:54:24.409Z,10.7
2023-01-20T06:55:40.670Z,11.1
2023-01-20T06:56:56.902Z,10.9
2023-01-20T06:58:13.143Z,10.7
2023-01-20T06:59:29.381Z,10.6
2023-01-20T07:00:45.617Z,11.1
2023-01-20T07:02:01.851Z,10.9
2023-01-20T07:03:18.080Z,10.8
2023-01-20T07:04:34.330Z,10.6
2023-01-20T07:05:50.560Z,10.6
2023-01-20T07:07:06.805Z,10.3
2023-01-20T07:08:23.044Z,10.1
2023-01-20T07:09:39.295Z,10.8
2023-01-20T07:10:54.548Z,10.4
2023-01-20T07:12:10.775Z,10.6
2023-01-20T07:13:27.037Z,11.2
2023-01-20T07:14:43.256Z,10.8
2023-01-20T07:15:59.513Z,10.6
2023-01-20T07:17:15.755Z,10.6
2023-01-20T07:18:31.991Z,10.1
2023-01-20T07:21:04.471Z,10.5
2023-01-20T07:22:20.714Z,10.6
2023-01-20T07:23:36.953Z,10.8
2023-01-20T07:24:53.178Z,10.9
2023-01-20T07:26:09.440Z,10.3
2023-01-20T07:27:24.672Z,10.2
2023-01-20T07:28:40.923Z,10.6
2023-01-20T07:29:57.170Z,10.3
2023-01-20T07:31:13.414Z,10.3
2023-01-20T07:32:29.634Z,10.6
2023-01-20T07:33:45.876Z,11.4
2023-01-20T07:35:02.119Z,10.8
2023-01-20T07:36:18.373Z,10.4
2023-01-20T07:37:34.593Z,10.5
2023-01-20T07:38:50.837Z,10.4
2023-01-20T07:40:07.092Z,10.5
2023-01-20T07:41:23.311Z,10.2
2023-01-20T07:42:39.557Z,9.7
2023-01-20T07:43:54.822Z,10.1
2023-01-20T07:45:11.063Z,10.1
2023-01-20T07:46:27.299Z,10.7
2023-01-20T07:47:43.550Z,10.4
2023-01-20T07:48:59.775Z,9.8
2023-01-20T07:50:16.024Z,10.7
2023-01-20T07:51:32.256Z,9.9
2023-01-20T07:52:48.500Z,9.7
2023-01-20T07:54:04.739Z,11.2
2023-01-20T07:55:20.964Z,10.5
2023-01-20T07:56:37.213Z,10.4
2023-01-20T07:57:53.462Z,10.9
2023-01-20T07:59:09.714Z,11.1
2023-01-20T08:00:24.941Z,10.5
2023-01-20T08:01:41.186Z,9.9
2023-01-20T08:02:57.435Z,11.6
2023-01-20T08:04:13.672Z,18
2023-01-20T08:05:29.899Z,15.2
2023-01-20T08:06:46.137Z,16.8
2023-01-20T08:08:02.391Z,17
2023-01-20T08:09:18.641Z,23.2
2023-01-20T08:10:34.872Z,20.9
2023-01-20T08:11:51.115Z,21.6
2023-01-20T08:13:07.343Z,16
2023-01-20T08:14:23.601Z,19.7
2023-01-20T08:15:39.828Z,24.5
2023-01-20T08:16:56.204Z,22.6
2023-01-20T08:18:12.433Z,24.2
2023-01-20T08:19:28.667Z,25.4
2023-01-20T08:20:44.900Z,16.1
2023-01-20T08:22:01.171Z,13.4
2023-01-20T08:23:17.386Z,11.9
2023-01-20T08:24:33.623Z,11.1
2023-01-20T08:25:49.857Z,11.3
2023-01-20T08:27:06.114Z,11.1
2023-01-20T08:28:22.357Z,13.1
2023-01-20T08:29:38.594Z,12.1
2023-01-20T08:30:54.837Z,12.3
2023-01-20T08:32:11.089Z,11.6
2023-01-20T08:33:26.324Z,11.1
2023-01-20T08:34:42.565Z,11.2
2023-01-20T08:35:58.807Z,11.9
2023-01-20T08:37:15.032Z,16.5
2023-01-20T08:38:31.271Z,11.6
2023-01-20T08:39:47.513Z,12.4
2023-01-20T08:41:03.755Z,13.9
2023-01-20T08:42:20.008Z,14
2023-01-20T08:43:36.236Z,12.9
2023-01-20T08:44:52.501Z,14
2023-01-20T08:46:08.716Z,11.5
2023-01-20T08:47:24.977Z,11.2
2023-01-20T08:48:41.190Z,11.1
2023-01-20T08:49:56.452Z,11.2
2023-01-20T08:51:12.694Z,10.9
2023-01-20T08:52:28.954Z,10.8
2023-01-20T08:53:45.184Z,10.9
2023-01-20T08:55:01.430Z,11.8
2023-01-20T08:56:17.653Z,11.1
2023-01-20T08:57:33.902Z,10.8
2023-01-20T08:58:50.143Z,11.8
2023-01-20T09:00:06.380Z,10.4
2023-01-20T09:01:22.607Z,11.8
2023-01-20T09:02:38.844Z,11.6
2023-01-20T09:03:55.094Z,11.2
2023-01-20T09:05:11.357Z,11.7
2023-01-20T09:06:26.587Z,10.5
2023-01-20T09:07:42.846Z,10.8
2023-01-20T09:08:59.069Z,11.6
2023-01-20T09:10:15.325Z,11.7
2023-01-20T09:11:31.555Z,11.1
2023-01-20T09:12:47.797Z,11.7
2023-01-20T09:14:04.024Z,12
2023-01-20T09:15:20.277Z,11.2
2023-01-20T09:16:36.502Z,11.5
2023-01-20T09:17:52.738Z,11.7
2023-01-20T09:19:09.006Z,11.4
2023-01-20T09:20:25.224Z,11.6
2023-01-20T09:21:41.475Z,11.5
2023-01-20T09:22:56.717Z,12
2023-01-20T09:24:12.952Z,11
2023-01-20T09:25:29.210Z,11.5
2023-01-20T09:26:45.443Z,12.4
2023-01-20T09:28:01.673Z,12.3
2023-01-20T09:29:17.922Z,11.1
2023-01-20T09:30:34.165Z,12
2023-01-20T09:31:50.408Z,11.7
2023-01-20T09:33:06.637Z,11.4
2023-01-20T09:34:22.883Z,12.1
2023-01-20T09:35:39.131Z,12
2023-01-20T09:36:55.372Z,11.9
2023-01-20T09:38:11.597Z,11.5
2023-01-20T09:39:26.855Z,12.1
2023-01-20T09:40:43.119Z,12.2
2023-01-20T09:41:59.349Z,12.4
2023-01-20T09:43:15.592Z,12
2023-01-20T09:44:31.815Z,12.3
2023-01-20T09:45:48.070Z,11.4
2023-01-20T09:47:04.299Z,12.3
2023-01-20T09:48:20.556Z,12.5
2023-01-20T09:49:36.781Z,11.8
2023-01-20T09:50:53.027Z,11.1
2023-01-20T09:52:09.262Z,11.3
2023-01-20T09:53:25.489Z,12.9
2023-01-20T09:54:41.738Z,12
2023-01-20T09:55:56.980Z,11.8
2023-01-20T09:57:13.238Z,12.5
2023-01-20T09:58:29.490Z,11.6
2023-01-20T09:59:45.716Z,13.4
2023-01-20T10:01:01.939Z,13.3
2023-01-20T10:02:18.182Z,13.5
2023-01-20T10:03:34.454Z,13.4
2023-01-20T10:04:50.682Z,12.6
2023-01-20T10:06:06.928Z,13.2
2023-01-20T10:07:23.141Z,13.8
2023-01-20T10:08:39.398Z,13.4
2023-01-20T10:09:55.620Z,13.6
2023-01-20T10:11:11.880Z,13.4
2023-01-20T10:12:28.101Z,12.7
2023-01-20T10:13:43.360Z,13.9
2023-01-20T10:14:59.602Z,14.7
2023-01-20T10:16:15.862Z,14.7
2023-01-20T10:17:32.084Z,13.5
2023-01-20T10:18:48.338Z,13.2
2023-01-20T10:20:04.577Z,13.1
2023-01-20T10:21:20.804Z,13.4
2023-01-20T10:22:37.034Z,13.2
2023-01-20T10:23:53.297Z,12.7
2023-01-20T10:25:09.522Z,12.9
2023-01-20T10:26:25.753Z,12
2023-01-20T10:27:42.009Z,12.9
2023-01-20T10:28:58.249Z,12.4
2023-01-20T10:30:13.502Z,12.1
2023-01-20T10:31:29.764Z,12.6
2023-01-20T10:32:45.976Z,11.7
2023-01-20T10:34:02.206Z,13
2023-01-20T10:35:18.475Z,12
2023-01-20T10:36:34.698Z,11.5
2023-01-20T10:37:50.936Z,12.5
2023-01-20T10:39:07.192Z,12.4
2023-01-20T10:40:23.416Z,12
2023-01-20T10:41:39.645Z,11.7
2023-01-20T10:42:55.888Z,12.2
2023-01-20T10:44:12.143Z,12.3
2023-01-20T10:45:28.369Z,11.7
2023-01-20T10:46:43.647Z,12.4
2023-01-20T10:47:59.871Z,12.1
2023-01-20T10:49:16.107Z,12.2
2023-01-20T10:50:32.346Z,12.7
2023-01-20T10:51:48.591Z,12.9
2023-01-20T10:53:04.834Z,12.7
2023-01-20T10:54:21.086Z,13.1
2023-01-20T10:55:37.300Z,12.8
2023-01-20T10:56:53.538Z,13.2
2023-01-20T10:58:09.789Z,12.7
2023-01-20T10:59:26.020Z,12.5
2023-01-20T11:00:42.264Z,12.6
2023-01-20T11:01:58.503Z,11.9
2023-01-20T11:03:13.770Z,12.9
2023-01-20T11:04:30.019Z,12.5
2023-01-20T11:05:46.236Z,12.2
2023-01-20T11:07:02.484Z,12.7
2023-01-20T11:08:18.714Z,12.6
2023-01-20T11:09:33.989Z,13.4
2023-01-20T11:10:50.232Z,12.9
2023-01-20T11:12:06.480Z,13.1
2023-01-20T11:13:22.710Z,12.9
2023-01-20T11:14:38.939Z,12.3
2023-01-20T11:15:55.184Z,12.5
2023-01-20T11:17:11.430Z,12.6
2023-01-20T11:18:27.653Z,13.2
2023-01-20T11:19:43.909Z,14.1
2023-01-20T11:22:16.369Z,13.1
2023-01-20T11:23:32.625Z,13.3
2023-01-20T11:24:48.850Z,12.5
2023-01-20T11:26:04.120Z,12.9
2023-01-20T11:27:20.344Z,13
2023-01-20T11:28:36.587Z,13.5
2023-01-20T11:29:52.825Z,13
2023-01-20T11:31:09.063Z,13.4
2023-01-20T11:32:25.317Z,13.8
2023-01-20T11:33:41.547Z,14.2
2023-01-20T11:34:57.786Z,13.5
2023-01-20T11:36:14.039Z,13.3
2023-01-20T11:37:30.285Z,13.9
2023-01-20T11:38:46.508Z,14.3
2023-01-20T11:40:02.750Z,13.2
2023-01-20T11:41:18.984Z,13.2
2023-01-20T11:42:34.256Z,12.8
2023-01-20T11:43:50.494Z,14.4
2023-01-20T11:45:06.735Z,14.3
2023-01-20T11:46:22.973Z,13.9
2023-01-20T11:47:39.199Z,13.1
2023-01-20T11:48:55.454Z,13.2
2023-01-20T11:50:11.683Z,12.7
2023-01-20T11:51:27.935Z,14.5
2023-01-20T11:52:44.170Z,13.8
2023-01-20T11:54:00.408Z,13.1
2023-01-20T11:55:16.659Z,12.9
2023-01-20T11:56:32.879Z,13.9
2023-01-20T11:57:49.115Z,13.9
2023-01-20T11:59:04.373Z,13.7
2023-01-20T12:00:20.622Z,14.9
2023-01-20T12:01:36.857Z,13.3
2023-01-20T12:02:53.101Z,12.7
2023-01-20T12:04:09.344Z,14
2023-01-20T12:05:25.592Z,13.6
2023-01-20T12:06:41.807Z,14.3
2023-01-20T12:07:58.066Z,13.3
2023-01-20T12:09:14.301Z,12.5
2023-01-20T12:10:30.558Z,13.3
2023-01-20T12:11:46.766Z,13
2023-01-20T12:13:03.010Z,12.8
2023-01-20T12:14:19.259Z,13.3
2023-01-20T12:15:34.504Z,13.6
2023-01-20T12:16:50.741Z,13.6
2023-01-20T12:18:07.014Z,15.5
2023-01-20T12:19:23.232Z,13
2023-01-20T12:20:39.492Z,13.4
2023-01-20T12:21:55.716Z,13.8
2023-01-20T12:23:11.947Z,12.6
2023-01-20T12:24:28.191Z,12.3
2023-01-20T12:25:44.430Z,13.4
2023-01-20T12:27:00.662Z,12.7
2023-01-20T12:28:16.908Z,12.8
2023-01-20T12:29:33.153Z,14.2
2023-01-20T12:30:49.401Z,14.6
2023-01-20T12:32:04.639Z,14.4
2023-01-20T12:33:20.875Z,15.5
2023-01-20T12:34:37.114Z,13.9
2023-01-20T12:35:53.381Z,15
2023-01-20T12:37:09.595Z,16.1
2023-01-20T12:38:25.834Z,13.9
2023-01-20T12:39:42.083Z,16.3
2023-01-20T12:40:58.327Z,14.3
2023-01-20T12:42:14.559Z,14
2023-01-20T12:43:30.809Z,14.2
2023-01-20T12:44:47.042Z,14.7
2023-01-20T12:46:03.288Z,13.4
2023-01-20T12:47:19.522Z,13
2023-01-20T12:48:34.782Z,13.6
2023-01-20T12:49:51.023Z,14
2023-01-20T12:51:07.265Z,13.5
2023-01-20T12:52:23.484Z,13.1
2023-01-20T12:53:39.731Z,13.4
2023-01-20T12:54:55.966Z,13.1
2023-01-20T12:56:12.207Z,13.4
2023-01-20T12:57:28.448Z,13.4
2023-01-20T12:58:44.700Z,12.7
2023-01-20T13:00:00.921Z,12.4
2023-01-20T13:01:17.191Z,13
2023-01-20T13:02:33.411Z,12.7
2023-01-20T13:03:49.657Z,12
2023-01-20T13:05:04.915Z,13.2
2023-01-20T13:06:21.157Z,13.2
2023-01-20T13:07:37.386Z,12.7
2023-01-20T13:08:53.646Z,13.4
2023-01-20T13:10:09.858Z,11.7
2023-01-20T13:11:26.121Z,12.8
2023-01-20T13:12:42.352Z,12.2
2023-01-20T13:13:58.577Z,12.2
2023-01-20T13:15:14.813Z,12.4
2023-01-20T13:16:31.062Z,12.5
2023-01-20T13:17:47.292Z,12.1
2023-01-20T13:19:03.544Z,12.6
2023-01-20T13:20:19.788Z,11.2
2023-01-20T13:21:35.058Z,11.1
2023-01-20T13:22:51.288Z,10.8
2023-01-20T13:24:07.510Z,11.5
2023-01-20T13:25:23.761Z,11.6
2023-01-20T13:26:40.010Z,11.5
2023-01-20T13:27:56.226Z,10.5
2023-01-20T13:29:12.469Z,12.2
2023-01-20T13:30:28.725Z,12.2
2023-01-20T13:31:44.958Z,11.3
2023-01-20T13:33:01.205Z,12.1
2023-01-20T13:34:17.433Z,11.7
2023-01-20T13:35:33.668Z,11.4
2023-01-20T13:36:49.904Z,11.8
2023-01-20T13:38:05.169Z,12.4
2023-01-20T13:39:21.413Z,12.1
2023-01-20T13:40:37.659Z,11.8
2023-01-20T13:41:53.886Z,12.1
2023-01-20T13:43:10.136Z,12.5
2023-01-20T13:44:26.390Z,13
2023-01-20T13:45:42.606Z,12.2
2023-01-20T13:46:58.857Z,12.9
2023-01-20T13:48:15.078Z,13.3
2023-01-20T13:49:31.318Z,13.1
2023-01-20T13:50:47.578Z,13
2023-01-20T13:52:03.802Z,13.5
2023-01-20T13:53:20.040Z,13.2
2023-01-20T13:54:35.295Z,13.5
2023-01-20T13:55:51.540Z,13.7
2023-01-20T13:57:07.787Z,13.3
2023-01-20T13:58:24.018Z,14.2
2023-01-20T13:59:40.258Z,13.7
2023-01-20T14:00:56.508Z,13.7
2023-01-20T14:02:12.737Z,13.4
2023-01-20T14:03:28.970Z,14.5
2023-01-20T14:04:45.212Z,14.8
2023-01-20T14:06:01.466Z,15.4
2023-01-20T14:07:17.705Z,13.6
2023-01-20T14:08:33.930Z,13.2
2023-01-20T14:09:50.184Z,12.9
2023-01-20T14:11:05.433Z,14.5
2023-01-20T14:12:21.680Z,15.1
2023-01-20T14:13:37.908Z,13.6
2023-01-20T14:14:54.156Z,12.9
2023-01-20T14:16:10.383Z,12.5
2023-01-20T14:17:26.640Z,13.2
2023-01-20T14:18:42.862Z,12.6
2023-01-20T14:19:59.109Z,12.3
2023-01-20T14:21:15.358Z,13.4
2023-01-20T14:22:31.580Z,12.3
2023-01-20T14:23:47.827Z,13.4
2023-01-20T14:25:04.060Z,13.8
2023-01-20T14:26:20.305Z,12.6
2023-01-20T14:27:35.564Z,12.1
2023-01-20T14:28:51.803Z,12.1
2023-01-20T14:30:08.047Z,13
2023-01-20T14:31:24.292Z,13.5
2023-01-20T14:32:40.521Z,14.2
2023-01-20T14:33:56.769Z,17
2023-01-20T14:35:13.006Z,13.4
2023-01-20T14:36:29.251Z,14.4
2023-01-20T14:37:45.484Z,13.6
2023-01-20T14:39:01.724Z,13.3
2023-01-20T14:40:17.966Z,13.5
2023-01-20T14:41:34.211Z,12.9
2023-01-20T14:42:50.438Z,14.2
2023-01-20T14:44:05.699Z,13.9
2023-01-20T14:45:21.943Z,13.3
2023-01-20T14:46:38.183Z,14.1
2023-01-20T14:47:54.408Z,13.4
2023-01-20T14:49:10.659Z,12.6
2023-01-20T14:50:26.899Z,13.4
2023-01-20T14:51:43.131Z,13.5
2023-01-20T14:52:59.365Z,13.1
2023-01-20T14:54:15.622Z,12.8
2023-01-20T14:55:31.844Z,12.9
2023-01-20T14:56:48.090Z,13.3
2023-01-20T14:58:04.341Z,13.9
2023-01-20T14:59:20.572Z,13.4
2023-01-20T15:00:35.826Z,13.5
2023-01-20T15:01:52.078Z,13.7
2023-01-20T15:03:08.300Z,13.6
2023-01-20T15:04:24.539Z,13.9
2023-01-20T15:05:40.797Z,13.6
2023-01-20T15:06:57.022Z,13.2
2023-01-20T15:08:13.279Z,13.3
2023-01-20T15:09:29.496Z,14.2
2023-01-20T15:10:45.745Z,13.2
2023-01-20T15:12:01.985Z,14.1
2023-01-20T15:13:18.230Z,13.8
2023-01-20T15:14:34.466Z,13.4
2023-01-20T15:15:50.707Z,13.4
2023-01-20T15:17:05.967Z,14
2023-01-20T15:18:22.200Z,13.9
2023-01-20T15:19:38.440Z,13.8
2023-01-20T15:20:54.683Z,14.3
2023-01-20T15:22:10.922Z,13.9
2023-01-20T15:23:27.170Z,14.8
2023-01-20T15:24:42.425Z,13.2
2023-01-20T15:25:58.656Z,13.4
2023-01-20T15:27:14.899Z,13.3
2023-01-20T15:28:31.139Z,13.9
2023-01-20T15:29:47.387Z,13.4
2023-01-20T15:31:03.617Z,13.1
2023-01-20T15:32:19.859Z,13.3
2023-01-20T15:33:36.093Z,13.9
2023-01-20T15:34:52.339Z,13.7
2023-01-20T15:36:08.569Z,14.4
2023-01-20T15:37:24.808Z,13.6
2023-01-20T15:38:41.052Z,13.7
2023-01-20T15:39:57.310Z,14.2
2023-01-20T15:41:12.565Z,15.7
2023-01-20T15:42:28.787Z,16.3
2023-01-20T15:43:45.040Z,17.1
2023-01-20T15:45:01.271Z,16.6
2023-01-20T15:46:17.518Z,16.3
2023-01-20T15:47:33.757Z,15.8
2023-01-20T15:48:50.001Z,16
2023-01-20T15:50:06.229Z,15.8
2023-01-20T15:51:22.468Z,16
2023-01-20T15:52:38.709Z,14.2
2023-01-20T15:53:54.954Z,16.5
2023-01-20T15:55:11.190Z,15.2
2023-01-20T15:56:27.437Z,15.4
2023-01-20T15:57:42.692Z,16.3
2023-01-20T15:58:58.922Z,15.7
2023-01-20T16:00:15.165Z,15.8
2023-01-20T16:01:31.403Z,15.8
2023-01-20T16:02:47.633Z,16.2
2023-01-20T16:04:03.885Z,15.3
2023-01-20T16:05:20.130Z,16.3
2023-01-20T16:06:36.364Z,16.8
2023-01-20T16:07:52.653Z,16.2
2023-01-20T16:09:08.943Z,16.6
2023-01-20T16:10:25.181Z,15.4
2023-01-20T16:11:41.423Z,16.3
2023-01-20T16:12:57.676Z,16.4
2023-01-20T16:14:12.928Z,16.4
2023-01-20T16:15:29.212Z,17.7
2023-01-20T16:16:45.515Z,16.8
2023-01-20T16:18:01.814Z,16.8
2023-01-20T16:19:18.101Z,17.7
2023-01-20T16:20:34.387Z,17.7
2023-01-20T16:21:50.694Z,18.6
2023-01-20T16:23:06.985Z,19.6
2023-01-20T16:24:23.276Z,20.9
2023-01-20T16:25:39.568Z,21.1
2023-01-20T16:26:55.859Z,19.7
2023-01-20T16:28:12.158Z,19.4
2023-01-20T16:29:28.443Z,19.6
2023-01-20T16:30:43.757Z,19.5
2023-01-20T16:32:00.058Z,18.5
2023-01-20T16:33:16.361Z,17.9
2023-01-20T16:34:32.650Z,20
2023-01-20T16:35:48.943Z,18.3
2023-01-20T16:37:05.233Z,18.5
2023-01-20T16:38:21.515Z,19
2023-01-20T16:39:37.820Z,18.5
2023-01-20T16:40:54.109Z,18.6
2023-01-20T16:42:10.414Z,17.7
2023-01-20T16:43:26.702Z,18.2
2023-01-20T16:44:42.986Z,19.2
2023-01-20T16:45:59.296Z,19.5
2023-01-20T16:47:14.605Z,18.7
2023-01-20T16:48:30.895Z,18.7
2023-01-20T16:49:47.189Z,18.6
2023-01-20T16:51:03.472Z,17.7
2023-01-20T16:52:19.767Z,17.5
2023-01-20T16:53:36.056Z,17.8
2023-01-20T16:54:52.370Z,18.4
2023-01-20T16:56:08.642Z,18.6
2023-01-20T16:57:24.948Z,18.7
2023-01-20T16:58:41.232Z,18
2023-01-20T16:59:57.552Z,19.7
2023-01-20T17:01:13.830Z,18.8
2023-01-20T17:02:30.135Z,18.4
2023-01-20T17:03:45.433Z,18.3